sensor_id;sensor_type;location;lat;lon;timestamp;P1;durP1;ratioP1;P2;durP2;ratioP2
43226;SDS011;28839;52.404;9.808;2022-07-29T00:02:45;2.27;;;1.30;;
43226;SDS011;28839;52.404;9.808;2022-07-29T00:09:39;5.95;;;1.48;;
43226;SDS011;28839;52.404;9.808;2022-07-29T00:16:33;4.32;;;1.58;;
43226;SDS011;28839;52.404;9.808;2022-07-29T00:23:28;8.07;;;2.80;;
43226;SDS011;28839;52.404;9.808;2022-07-29T00:30:22;3.25;;;1.48;;
43226;SDS011;28839;52.404;9.808;2022-07-29T00:37:16;3.00;;;1.60;;
43226;SDS011;28839;52.404;9.808;2022-07-29T00:44:12;3.67;;;1.40;;
43226;SDS011;28839;52.404;9.808;2022-07-29T00:51:05;6.35;;;1.62;;
43226;SDS011;28839;52.404;9.808;2022-07-29T00:58:02;4.97;;;1.50;;
43226;SDS011;28839;52.404;9.808;2022-07-29T01:04:58;9.48;;;1.85;;
43226;SDS011;28839;52.404;9.808;2022-07-29T01:11:52;2.85;;;1.65;;
43226;SDS011;28839;52.404;9.808;2022-07-29T01:25:51;4.28;;;1.60;;
43226;SDS011;28839;52.404;9.808;2022-07-29T01:32:59;6.05;;;1.92;;
43226;SDS011;28839;52.404;9.808;2022-07-29T01:39:56;3.65;;;1.80;;
43226;SDS011;28839;52.404;9.808;2022-07-29T01:46:52;4.20;;;1.65;;
43226;SDS011;28839;52.404;9.808;2022-07-29T01:53:54;7.50;;;1.48;;
43226;SDS011;28839;52.404;9.808;2022-07-29T02:00:52;4.93;;;1.80;;
43226;SDS011;28839;52.404;9.808;2022-07-29T02:07:49;4.05;;;1.62;;
43226;SDS011;28839;52.404;9.808;2022-07-29T02:14:47;3.22;;;1.48;;
43226;SDS011;28839;52.404;9.808;2022-07-29T02:21:44;2.22;;;1.40;;
43226;SDS011;28839;52.404;9.808;2022-07-29T02:28:39;3.95;;;1.52;;
43226;SDS011;28839;52.404;9.808;2022-07-29T02:35:35;3.78;;;1.65;;
43226;SDS011;28839;52.404;9.808;2022-07-29T02:42:31;6.80;;;1.60;;
43226;SDS011;28839;52.404;9.808;2022-07-29T02:49:29;3.97;;;1.73;;
43226;SDS011;28839;52.404;9.808;2022-07-29T02:56:29;2.65;;;1.58;;
43226;SDS011;28839;52.404;9.808;2022-07-29T03:03:28;7.93;;;1.85;;
43226;SDS011;28839;52.404;9.808;2022-07-29T03:10:24;8.93;;;1.90;;
43226;SDS011;28839;52.404;9.808;2022-07-29T03:24:24;4.35;;;1.90;;
43226;SDS011;28839;52.404;9.808;2022-07-29T03:31:19;3.28;;;1.77;;
43226;SDS011;28839;52.404;9.808;2022-07-29T03:38:14;4.30;;;1.73;;
43226;SDS011;28839;52.404;9.808;2022-07-29T03:45:09;6.62;;;1.80;;
43226;SDS011;28839;52.404;9.808;2022-07-29T03:52:08;5.75;;;2.10;;
43226;SDS011;28839;52.404;9.808;2022-07-29T03:59:04;6.77;;;2.00;;
43226;SDS011;28839;52.404;9.808;2022-07-29T04:05:59;2.95;;;1.92;;
43226;SDS011;28839;52.404;9.808;2022-07-29T04:12:54;4.15;;;1.75;;
43226;SDS011;28839;52.404;9.808;2022-07-29T04:19:49;4.60;;;2.00;;
43226;SDS011;28839;52.404;9.808;2022-07-29T04:26:43;5.90;;;2.30;;
43226;SDS011;28839;52.404;9.808;2022-07-29T04:40:33;5.80;;;3.05;;
43226;SDS011;28839;52.404;9.808;2022-07-29T04:47:27;4.95;;;2.22;;
43226;SDS011;28839;52.404;9.808;2022-07-29T04:54:21;4.83;;;2.33;;
43226;SDS011;28839;52.404;9.808;2022-07-29T05:01:16;5.50;;;2.80;;
43226;SDS011;28839;52.404;9.808;2022-07-29T05:08:10;5.97;;;2.58;;
43226;SDS011;28839;52.404;9.808;2022-07-29T05:15:05;4.20;;;2.10;;
43226;SDS011;28839;52.404;9.808;2022-07-29T05:22:01;4.53;;;2.40;;
43226;SDS011;28839;52.404;9.808;2022-07-29T05:28:54;6.55;;;2.60;;
43226;SDS011;28839;52.404;9.808;2022-07-29T05:35:49;6.00;;;2.40;;
43226;SDS011;28839;52.404;9.808;2022-07-29T05:42:44;8.73;;;2.80;;
43226;SDS011;28839;52.404;9.808;2022-07-29T05:49:38;7.60;;;2.47;;
43226;SDS011;28839;52.404;9.808;2022-07-29T05:56:32;10.57;;;2.70;;
43226;SDS011;28839;52.404;9.808;2022-07-29T06:03:27;6.87;;;2.40;;
43226;SDS011;28839;52.404;9.808;2022-07-29T06:10:22;7.18;;;2.75;;
43226;SDS011;28839;52.404;9.808;2022-07-29T06:17:16;4.85;;;2.42;;
43226;SDS011;28839;52.404;9.808;2022-07-29T06:24:14;9.00;;;3.00;;
43226;SDS011;28839;52.404;9.808;2022-07-29T06:31:08;9.68;;;2.67;;
43226;SDS011;28839;52.404;9.808;2022-07-29T06:38:02;10.98;;;2.95;;
43226;SDS011;28839;52.404;9.808;2022-07-29T06:44:58;6.40;;;2.60;;
43226;SDS011;28839;52.404;9.808;2022-07-29T06:51:52;6.30;;;2.60;;
43226;SDS011;28839;52.404;9.808;2022-07-29T06:58:46;6.50;;;2.78;;
43226;SDS011;28839;52.404;9.808;2022-07-29T07:05:41;7.43;;;2.73;;
43226;SDS011;28839;52.404;9.808;2022-07-29T07:12:36;9.40;;;2.62;;
43226;SDS011;28839;52.404;9.808;2022-07-29T07:19:30;5.93;;;2.55;;
43226;SDS011;28839;52.404;9.808;2022-07-29T07:26:25;2.97;;;2.55;;
43226;SDS011;28839;52.404;9.808;2022-07-29T07:33:19;7.22;;;2.70;;
43226;SDS011;28839;52.404;9.808;2022-07-29T07:40:13;9.52;;;3.08;;
43226;SDS011;28839;52.404;9.808;2022-07-29T07:47:08;7.45;;;2.62;;
43226;SDS011;28839;52.404;9.808;2022-07-29T07:54:02;12.43;;;2.87;;
43226;SDS011;28839;52.404;9.808;2022-07-29T08:00:56;4.97;;;2.92;;
43226;SDS011;28839;52.404;9.808;2022-07-29T08:07:51;6.05;;;2.87;;
43226;SDS011;28839;52.404;9.808;2022-07-29T08:14:45;10.07;;;3.10;;
43226;SDS011;28839;52.404;9.808;2022-07-29T08:21:39;5.45;;;3.03;;
43226;SDS011;28839;52.404;9.808;2022-07-29T08:28:34;10.02;;;3.55;;
43226;SDS011;28839;52.404;9.808;2022-07-29T08:35:29;8.65;;;3.35;;
43226;SDS011;28839;52.404;9.808;2022-07-29T08:42:22;7.18;;;2.92;;
43226;SDS011;28839;52.404;9.808;2022-07-29T08:49:18;8.85;;;3.00;;
43226;SDS011;28839;52.404;9.808;2022-07-29T08:56:12;8.00;;;2.75;;
43226;SDS011;28839;52.404;9.808;2022-07-29T09:03:06;10.13;;;3.00;;
43226;SDS011;28839;52.404;9.808;2022-07-29T09:10:05;9.60;;;2.95;;
43226;SDS011;28839;52.404;9.808;2022-07-29T09:17:00;13.75;;;4.53;;
43226;SDS011;28839;52.404;9.808;2022-07-29T09:24:01;8.00;;;3.25;;
43226;SDS011;28839;52.404;9.808;2022-07-29T09:30:58;7.55;;;3.00;;
43226;SDS011;28839;52.404;9.808;2022-07-29T09:37:52;6.93;;;3.25;;
43226;SDS011;28839;52.404;9.808;2022-07-29T09:44:47;7.07;;;3.30;;
43226;SDS011;28839;52.404;9.808;2022-07-29T09:51:43;7.30;;;3.35;;
43226;SDS011;28839;52.404;9.808;2022-07-29T09:58:37;6.62;;;3.05;;
43226;SDS011;28839;52.404;9.808;2022-07-29T10:05:31;6.90;;;3.20;;
43226;SDS011;28839;52.404;9.808;2022-07-29T10:12:27;7.47;;;3.20;;
43226;SDS011;28839;52.404;9.808;2022-07-29T10:19:21;7.62;;;3.00;;
43226;SDS011;28839;52.404;9.808;2022-07-29T10:26:15;10.98;;;3.08;;
43226;SDS011;28839;52.404;9.808;2022-07-29T10:33:21;11.63;;;3.50;;
43226;SDS011;28839;52.404;9.808;2022-07-29T10:40:26;8.10;;;3.20;;
43226;SDS011;28839;52.404;9.808;2022-07-29T10:48:02;8.48;;;3.08;;
43226;SDS011;28839;52.404;9.808;2022-07-29T10:54:59;13.18;;;3.42;;
43226;SDS011;28839;52.404;9.808;2022-07-29T11:01:54;6.60;;;2.83;;
43226;SDS011;28839;52.404;9.808;2022-07-29T11:08:52;9.57;;;3.35;;
43226;SDS011;28839;52.404;9.808;2022-07-29T11:16:10;7.65;;;2.83;;
43226;SDS011;28839;52.404;9.808;2022-07-29T11:23:17;7.43;;;2.90;;
43226;SDS011;28839;52.404;9.808;2022-07-29T11:30:12;8.27;;;3.03;;
43226;SDS011;28839;52.404;9.808;2022-07-29T11:37:20;4.72;;;2.72;;
43226;SDS011;28839;52.404;9.808;2022-07-29T11:44:14;6.50;;;2.85;;
43226;SDS011;28839;52.404;9.808;2022-07-29T11:51:09;7.22;;;2.65;;
43226;SDS011;28839;52.404;9.808;2022-07-29T11:58:05;7.65;;;2.53;;
43226;SDS011;28839;52.404;9.808;2022-07-29T12:04:59;8.00;;;2.67;;
43226;SDS011;28839;52.404;9.808;2022-07-29T12:11:56;5.18;;;2.17;;
43226;SDS011;28839;52.404;9.808;2022-07-29T12:18:58;7.93;;;2.92;;
43226;SDS011;28839;52.404;9.808;2022-07-29T12:25:54;9.65;;;2.95;;
43226;SDS011;28839;52.404;9.808;2022-07-29T12:32:48;7.62;;;2.60;;
43226;SDS011;28839;52.404;9.808;2022-07-29T12:39:43;6.82;;;2.75;;
43226;SDS011;28839;52.404;9.808;2022-07-29T12:46:37;3.78;;;2.62;;
43226;SDS011;28839;52.404;9.808;2022-07-29T12:53:32;6.45;;;2.25;;
43226;SDS011;28839;52.404;9.808;2022-07-29T13:00:27;9.50;;;2.60;;
43226;SDS011;28839;52.404;9.808;2022-07-29T13:07:23;7.10;;;2.50;;
43226;SDS011;28839;52.404;9.808;2022-07-29T13:14:29;5.53;;;2.60;;
43226;SDS011;28839;52.404;9.808;2022-07-29T13:21:25;7.43;;;3.33;;
43226;SDS011;28839;52.404;9.808;2022-07-29T13:28:19;7.03;;;3.10;;
43226;SDS011;28839;52.404;9.808;2022-07-29T13:35:13;10.85;;;3.15;;
43226;SDS011;28839;52.404;9.808;2022-07-29T13:42:09;7.43;;;3.45;;
43226;SDS011;28839;52.404;9.808;2022-07-29T13:49:05;8.80;;;3.08;;
43226;SDS011;28839;52.404;9.808;2022-07-29T13:55:59;9.15;;;3.00;;
43226;SDS011;28839;52.404;9.808;2022-07-29T14:02:54;8.32;;;3.50;;
43226;SDS011;28839;52.404;9.808;2022-07-29T14:09:48;9.02;;;2.87;;
43226;SDS011;28839;52.404;9.808;2022-07-29T14:16:42;11.80;;;3.20;;
43226;SDS011;28839;52.404;9.808;2022-07-29T14:23:38;8.30;;;3.45;;
43226;SDS011;28839;52.404;9.808;2022-07-29T14:30:32;10.98;;;3.00;;
43226;SDS011;28839;52.404;9.808;2022-07-29T14:37:26;8.63;;;3.17;;
43226;SDS011;28839;52.404;9.808;2022-07-29T14:44:21;7.78;;;3.47;;
43226;SDS011;28839;52.404;9.808;2022-07-29T14:51:16;5.72;;;3.00;;
43226;SDS011;28839;52.404;9.808;2022-07-29T14:58:10;6.28;;;2.50;;
43226;SDS011;28839;52.404;9.808;2022-07-29T15:05:05;6.32;;;2.90;;
43226;SDS011;28839;52.404;9.808;2022-07-29T15:12:00;8.73;;;3.20;;
43226;SDS011;28839;52.404;9.808;2022-07-29T15:18:54;13.75;;;3.70;;
43226;SDS011;28839;52.404;9.808;2022-07-29T15:25:51;10.40;;;3.62;;
43226;SDS011;28839;52.404;9.808;2022-07-29T15:32:44;7.07;;;3.10;;
43226;SDS011;28839;52.404;9.808;2022-07-29T15:39:38;6.82;;;3.20;;
43226;SDS011;28839;52.404;9.808;2022-07-29T15:46:33;10.60;;;3.00;;
43226;SDS011;28839;52.404;9.808;2022-07-29T15:53:45;6.90;;;2.80;;
43226;SDS011;28839;52.404;9.808;2022-07-29T16:00:39;7.85;;;3.15;;
43226;SDS011;28839;52.404;9.808;2022-07-29T16:07:34;13.68;;;2.80;;
43226;SDS011;28839;52.404;9.808;2022-07-29T16:14:28;5.87;;;2.70;;
43226;SDS011;28839;52.404;9.808;2022-07-29T16:21:22;7.32;;;2.80;;
43226;SDS011;28839;52.404;9.808;2022-07-29T16:28:17;6.65;;;3.00;;
43226;SDS011;28839;52.404;9.808;2022-07-29T16:35:11;11.40;;;2.95;;
43226;SDS011;28839;52.404;9.808;2022-07-29T16:42:05;8.98;;;2.65;;
43226;SDS011;28839;52.404;9.808;2022-07-29T16:49:00;6.45;;;2.62;;
43226;SDS011;28839;52.404;9.808;2022-07-29T16:55:55;8.75;;;2.58;;
43226;SDS011;28839;52.404;9.808;2022-07-29T17:02:49;9.35;;;2.70;;
43226;SDS011;28839;52.404;9.808;2022-07-29T17:09:44;5.45;;;2.67;;
43226;SDS011;28839;52.404;9.808;2022-07-29T17:16:38;8.05;;;2.72;;
43226;SDS011;28839;52.404;9.808;2022-07-29T17:23:32;5.45;;;2.47;;
43226;SDS011;28839;52.404;9.808;2022-07-29T17:30:27;5.20;;;2.87;;
43226;SDS011;28839;52.404;9.808;2022-07-29T17:37:21;7.03;;;2.58;;
43226;SDS011;28839;52.404;9.808;2022-07-29T17:44:15;5.90;;;2.78;;
43226;SDS011;28839;52.404;9.808;2022-07-29T17:51:10;6.97;;;2.62;;
43226;SDS011;28839;52.404;9.808;2022-07-29T17:58:04;13.77;;;2.97;;
43226;SDS011;28839;52.404;9.808;2022-07-29T18:05:00;6.28;;;3.00;;
43226;SDS011;28839;52.404;9.808;2022-07-29T18:11:55;8.10;;;3.03;;
43226;SDS011;28839;52.404;9.808;2022-07-29T18:18:49;8.07;;;3.03;;
43226;SDS011;28839;52.404;9.808;2022-07-29T18:25:43;8.88;;;3.33;;
43226;SDS011;28839;52.404;9.808;2022-07-29T18:32:38;8.27;;;3.12;;
43226;SDS011;28839;52.404;9.808;2022-07-29T18:39:32;8.07;;;2.78;;
43226;SDS011;28839;52.404;9.808;2022-07-29T18:46:26;6.20;;;3.17;;
43226;SDS011;28839;52.404;9.808;2022-07-29T18:53:21;6.22;;;2.90;;
43226;SDS011;28839;52.404;9.808;2022-07-29T19:00:15;6.53;;;2.80;;
43226;SDS011;28839;52.404;9.808;2022-07-29T19:07:10;8.70;;;3.33;;
43226;SDS011;28839;52.404;9.808;2022-07-29T19:14:05;20.83;;;3.72;;
43226;SDS011;28839;52.404;9.808;2022-07-29T19:20:59;9.65;;;3.00;;
43226;SDS011;28839;52.404;9.808;2022-07-29T19:27:53;14.43;;;3.95;;
43226;SDS011;28839;52.404;9.808;2022-07-29T19:41:56;8.73;;;4.80;;
43226;SDS011;28839;52.404;9.808;2022-07-29T19:55:45;9.57;;;3.77;;
43226;SDS011;28839;52.404;9.808;2022-07-29T20:02:39;12.00;;;4.07;;
43226;SDS011;28839;52.404;9.808;2022-07-29T20:09:33;6.75;;;4.37;;
43226;SDS011;28839;52.404;9.808;2022-07-29T20:16:29;11.23;;;3.50;;
43226;SDS011;28839;52.404;9.808;2022-07-29T20:23:23;6.97;;;3.45;;
43226;SDS011;28839;52.404;9.808;2022-07-29T20:30:17;6.87;;;3.58;;
43226;SDS011;28839;52.404;9.808;2022-07-29T20:37:12;5.43;;;3.05;;
43226;SDS011;28839;52.404;9.808;2022-07-29T20:44:07;7.25;;;3.37;;
43226;SDS011;28839;52.404;9.808;2022-07-29T20:51:01;5.50;;;2.97;;
43226;SDS011;28839;52.404;9.808;2022-07-29T20:57:56;10.75;;;3.47;;
43226;SDS011;28839;52.404;9.808;2022-07-29T21:04:50;5.30;;;3.10;;
43226;SDS011;28839;52.404;9.808;2022-07-29T21:11:44;6.12;;;2.90;;
43226;SDS011;28839;52.404;9.808;2022-07-29T21:18:40;8.38;;;2.87;;
43226;SDS011;28839;52.404;9.808;2022-07-29T21:25:37;6.05;;;2.83;;
43226;SDS011;28839;52.404;9.808;2022-07-29T21:32:30;6.60;;;3.20;;
43226;SDS011;28839;52.404;9.808;2022-07-29T21:39:26;9.40;;;2.78;;
43226;SDS011;28839;52.404;9.808;2022-07-29T21:46:20;8.27;;;2.80;;
43226;SDS011;28839;52.404;9.808;2022-07-29T21:53:14;6.03;;;3.12;;
43226;SDS011;28839;52.404;9.808;2022-07-29T22:00:10;7.37;;;3.00;;
43226;SDS011;28839;52.404;9.808;2022-07-29T22:07:06;7.37;;;3.70;;
43226;SDS011;28839;52.404;9.808;2022-07-29T22:14:00;7.12;;;3.72;;
43226;SDS011;28839;52.404;9.808;2022-07-29T22:20:56;8.68;;;4.80;;
43226;SDS011;28839;52.404;9.808;2022-07-29T22:27:49;8.93;;;4.37;;
43226;SDS011;28839;52.404;9.808;2022-07-29T22:34:43;7.70;;;5.03;;
43226;SDS011;28839;52.404;9.808;2022-07-29T22:41:39;7.32;;;4.37;;
43226;SDS011;28839;52.404;9.808;2022-07-29T22:48:32;11.10;;;5.18;;
43226;SDS011;28839;52.404;9.808;2022-07-29T22:55:26;10.50;;;5.45;;
43226;SDS011;28839;52.404;9.808;2022-07-29T23:02:21;9.63;;;5.72;;
43226;SDS011;28839;52.404;9.808;2022-07-29T23:09:15;11.32;;;6.25;;
43226;SDS011;28839;52.404;9.808;2022-07-29T23:16:09;10.90;;;6.18;;
43226;SDS011;28839;52.404;9.808;2022-07-29T23:23:05;12.23;;;6.05;;
43226;SDS011;28839;52.404;9.808;2022-07-29T23:29:58;9.82;;;5.53;;
43226;SDS011;28839;52.404;9.808;2022-07-29T23:36:52;11.37;;;5.83;;
43226;SDS011;28839;52.404;9.808;2022-07-29T23:43:48;6.60;;;5.47;;
43226;SDS011;28839;52.404;9.808;2022-07-29T23:50:42;8.98;;;6.87;;
43226;SDS011;28839;52.404;9.808;2022-07-29T23:57:36;7.25;;;6.00;;
